createdAt,value
2022-11-16T00:00:34.176Z,11.73
2022-11-16T00:03:36.010Z,10.30
2022-11-16T00:06:38.024Z,10.73
2022-11-16T00:09:41.675Z,10.77
2022-11-16T00:12:43.400Z,9.80
2022-11-16T00:15:54.769Z,10.70
2022-11-16T00:18:58.812Z,10.23
2022-11-16T00:22:00.504Z,9.83
2022-11-16T00:25:02.098Z,10.30
2022-11-16T00:28:03.847Z,10.20
2022-11-16T00:31:07.284Z,9.63
2022-11-16T00:34:08.954Z,9.23
2022-11-16T00:37:10.551Z,9.17
2022-11-16T00:40:12.526Z,9.80
2022-11-16T00:43:14.160Z,9.00
2022-11-16T00:46:16.060Z,8.90
2022-11-16T00:49:17.692Z,9.27
2022-11-16T00:52:19.293Z,9.20
2022-11-16T00:55:20.963Z,9.13
2022-11-16T00:58:22.568Z,9.60
2022-11-16T01:01:24.240Z,9.10
2022-11-16T01:04:25.945Z,9.13
2022-11-16T01:07:27.633Z,8.40
2022-11-16T01:10:29.373Z,8.40
2022-11-16T01:13:30.985Z,7.70
2022-11-16T01:16:32.885Z,8.17
2022-11-16T01:19:34.720Z,7.80
2022-11-16T01:22:37.485Z,8.27
2022-11-16T01:25:39.217Z,7.93
2022-11-16T01:28:40.965Z,7.77
2022-11-16T01:31:42.606Z,6.87
2022-11-16T01:34:44.193Z,7.87
2022-11-16T01:37:45.855Z,6.27
2022-11-16T01:40:47.564Z,7.50
2022-11-16T01:44:01.865Z,7.77
2022-11-16T01:47:08.369Z,6.80
2022-11-16T01:50:13.747Z,6.70
2022-11-16T01:53:16.189Z,7.30
2022-11-16T01:56:18.045Z,8.10
2022-11-16T01:59:19.886Z,7.20
2022-11-16T02:02:21.516Z,7.27
2022-11-16T02:05:37.682Z,7.20
2022-11-16T02:09:32.089Z,6.87
2022-11-16T02:13:02.443Z,6.70
2022-11-16T02:16:04.080Z,6.73
2022-11-16T02:19:31.591Z,7.10
2022-11-16T02:23:25.726Z,7.03
2022-11-16T02:27:05.527Z,7.70
2022-11-16T02:30:07.780Z,8.00
2022-11-16T02:33:13.300Z,7.53
2022-11-16T02:36:20.408Z,7.90
2022-11-16T02:39:27.126Z,7.90
2022-11-16T02:42:43.872Z,9.03
2022-11-16T02:45:49.721Z,9.67
2022-11-16T02:48:55.669Z,10.10
2022-11-16T02:51:59.026Z,9.50
2022-11-16T02:55:00.716Z,10.40
2022-11-16T02:58:06.349Z,11.23
2022-11-16T03:01:18.053Z,11.50
2022-11-16T03:04:34.086Z,11.23
2022-11-16T03:07:43.992Z,12.73
2022-11-16T03:11:13.994Z,13.77
2022-11-16T03:14:19.315Z,14.60
2022-11-16T03:17:30.096Z,14.53
2022-11-16T03:20:33.928Z,14.20
2022-11-16T03:23:35.917Z,14.90
2022-11-16T03:26:49.486Z,15.87
2022-11-16T03:29:59.620Z,15.37
2022-11-16T03:33:15.854Z,16.00
2022-11-16T03:36:33.481Z,17.00
2022-11-16T03:39:38.848Z,15.90
2022-11-16T03:42:42.032Z,17.20
2022-11-16T03:45:44.734Z,18.00
2022-11-16T03:48:46.707Z,18.43
2022-11-16T03:51:49.512Z,17.23
2022-11-16T03:54:51.153Z,18.07
2022-11-16T03:57:52.934Z,18.27
2022-11-16T04:00:54.687Z,16.70
2022-11-16T04:03:56.400Z,18.37
2022-11-16T04:07:16.815Z,18.03
2022-11-16T04:10:37.117Z,17.57
2022-11-16T04:13:57.430Z,18.63
2022-11-16T04:17:17.927Z,18.40
2022-11-16T04:20:38.121Z,18.23
2022-11-16T04:23:58.730Z,17.97
2022-11-16T04:27:24.372Z,15.47
2022-11-16T04:30:46.303Z,14.30
2022-11-16T04:34:09.189Z,14.60
2022-11-16T04:37:35.259Z,13.20
2022-11-16T04:40:36.960Z,12.53
2022-11-16T04:43:38.551Z,13.10
2022-11-16T04:46:59.148Z,11.70
2022-11-16T04:50:00.752Z,13.17
2022-11-16T04:53:03.968Z,12.80
2022-11-16T04:56:05.757Z,12.90
2022-11-16T04:59:07.428Z,14.00
2022-11-16T05:02:09.244Z,15.13
2022-11-16T05:05:11.171Z,14.20
2022-11-16T05:08:12.866Z,15.47
2022-11-16T05:11:14.510Z,15.20
2022-11-16T05:14:16.159Z,16.60
2022-11-16T05:17:18.583Z,15.80
2022-11-16T05:20:39.099Z,15.03
2022-11-16T05:23:59.489Z,16.30
2022-11-16T05:27:06.289Z,14.77
2022-11-16T05:30:08.974Z,15.67
2022-11-16T05:33:10.694Z,16.53
2022-11-16T05:36:12.393Z,18.33
2022-11-16T05:39:14.222Z,15.40
2022-11-16T05:42:16.250Z,18.30
2022-11-16T05:45:20.967Z,16.03
2022-11-16T05:48:23.003Z,16.43
2022-11-16T05:51:24.771Z,16.80
2022-11-16T05:54:26.497Z,17.00
2022-11-16T05:57:28.139Z,18.00
2022-11-16T06:00:29.760Z,17.73
2022-11-16T06:03:32.273Z,18.27
2022-11-16T06:06:34.295Z,18.20
2022-11-16T06:09:35.966Z,17.93
2022-11-16T06:12:37.630Z,18.67
2022-11-16T06:15:39.843Z,19.37
2022-11-16T06:18:43.600Z,19.47
2022-11-16T06:21:45.316Z,17.67
2022-11-16T06:24:46.978Z,19.70
2022-11-16T06:27:48.584Z,19.60
2022-11-16T06:30:50.479Z,18.77
2022-11-16T06:33:52.105Z,18.90
2022-11-16T06:36:53.801Z,19.07
2022-11-16T06:39:55.547Z,18.67
2022-11-16T06:42:57.261Z,19.13
2022-11-16T06:46:01.857Z,18.33
2022-11-16T06:49:03.736Z,17.50
2022-11-16T06:52:05.523Z,17.67
2022-11-16T06:55:07.746Z,16.37
2022-11-16T06:58:09.414Z,14.13
2022-11-16T07:01:12.256Z,12.30
2022-11-16T07:04:14.067Z,11.50
2022-11-16T07:07:16.485Z,13.10
2022-11-16T07:10:18.280Z,15.43
2022-11-16T07:13:19.892Z,19.00
2022-11-16T07:16:22.008Z,19.53
2022-11-16T07:19:23.692Z,19.53
2022-11-16T07:22:25.508Z,20.50
2022-11-16T07:25:27.332Z,20.17
2022-11-16T07:28:29.812Z,23.63
2022-11-16T07:31:31.748Z,20.03
2022-11-16T07:34:33.387Z,17.90
2022-11-16T07:37:34.994Z,18.80
2022-11-16T07:40:37.035Z,16.17
2022-11-16T07:43:39.814Z,16.37
2022-11-16T07:46:47.456Z,13.90
2022-11-16T07:49:49.929Z,14.23
2022-11-16T07:52:51.535Z,14.40
2022-11-16T07:55:54.340Z,12.20
2022-11-16T07:58:56.727Z,13.50
2022-11-16T08:01:59.277Z,12.90
2022-11-16T08:05:01.089Z,12.57
2022-11-16T08:08:02.743Z,12.17
2022-11-16T08:11:07.067Z,12.30
2022-11-16T08:14:08.662Z,12.50
2022-11-16T08:17:10.313Z,11.40
2022-11-16T08:20:12.367Z,10.97
2022-11-16T08:23:13.942Z,11.37
2022-11-16T08:26:18.216Z,11.17
2022-11-16T08:29:19.921Z,13.23
2022-11-16T08:32:21.565Z,12.67
2022-11-16T08:35:23.373Z,11.87
2022-11-16T08:38:24.963Z,10.67
2022-11-16T08:41:26.685Z,11.00
2022-11-16T08:44:28.259Z,10.27
2022-11-16T08:47:31.341Z,9.50
2022-11-16T08:50:44.225Z,10.07
2022-11-16T08:53:58.853Z,9.37
2022-11-16T08:57:00.524Z,8.00
2022-11-16T09:00:03.051Z,5.73
2022-11-16T09:03:04.698Z,4.57
2022-11-16T09:06:07.284Z,4.00
2022-11-16T09:09:08.907Z,4.10
2022-11-16T09:12:10.539Z,3.37
2022-11-16T09:15:12.106Z,3.30
2022-11-16T09:18:14.046Z,4.00
2022-11-16T09:21:20.675Z,3.60
2022-11-16T09:24:22.270Z,4.43
2022-11-16T09:27:24.132Z,3.40
2022-11-16T09:30:25.729Z,3.00
2022-11-16T09:33:29.881Z,3.20
2022-11-16T09:36:32.023Z,2.97
2022-11-16T09:39:34.371Z,3.60
2022-11-16T09:43:23.467Z,2.90
2022-11-16T09:46:41.619Z,2.70
2022-11-16T09:49:51.028Z,3.20
2022-11-16T09:52:55.394Z,3.27
2022-11-16T09:56:04.040Z,3.60
2022-11-16T09:59:16.693Z,4.83
2022-11-16T10:02:28.289Z,2.93
2022-11-16T10:05:38.740Z,4.30
2022-11-16T10:08:44.635Z,2.90
2022-11-16T10:11:56.422Z,2.67
2022-11-16T10:15:04.795Z,2.87
2022-11-16T10:18:24.728Z,2.17
2022-11-16T10:21:52.409Z,2.50
2022-11-16T10:24:57.902Z,3.20
2022-11-16T10:28:02.688Z,2.63
2022-11-16T10:31:23.614Z,3.10
2022-11-16T10:34:28.204Z,2.67
2022-11-16T10:37:32.817Z,2.60
2022-11-16T10:40:38.492Z,2.40
2022-11-16T10:43:42.071Z,2.63
2022-11-16T10:46:50.122Z,2.63
2022-11-16T10:50:09.221Z,2.50
2022-11-16T10:53:34.324Z,3.00
2022-11-16T10:56:39.478Z,2.43
2022-11-16T10:59:52.313Z,2.77
2022-11-16T11:02:53.901Z,2.87
2022-11-16T11:05:55.692Z,2.57
2022-11-16T11:09:25.275Z,2.37
2022-11-16T11:12:39.593Z,1.73
2022-11-16T11:15:42.540Z,2.13
2022-11-16T11:18:44.326Z,1.87
2022-11-16T11:21:47.429Z,2.33
2022-11-16T11:24:49.564Z,2.10
2022-11-16T11:28:03.659Z,2.40
2022-11-16T11:31:25.995Z,3.10
2022-11-16T11:34:32.038Z,2.10
2022-11-16T11:37:37.176Z,2.33
2022-11-16T11:40:39.200Z,2.00
2022-11-16T11:43:41.974Z,2.80
2022-11-16T11:50:53.545Z,2.23
2022-11-16T11:54:00.826Z,2.10
2022-11-16T11:57:03.734Z,2.20
2022-11-16T12:00:09.169Z,2.80
2022-11-16T12:03:49.755Z,2.27
2022-11-16T12:07:19.264Z,2.33
2022-11-16T12:10:46.461Z,2.63
2022-11-16T12:13:53.906Z,2.17
2022-11-16T12:17:01.619Z,2.47
2022-11-16T12:20:28.271Z,1.70
2022-11-16T12:23:56.377Z,1.87
2022-11-16T12:27:19.471Z,2.73
2022-11-16T12:30:24.814Z,2.20
2022-11-16T12:33:58.149Z,1.93
2022-11-16T12:37:31.623Z,2.20
2022-11-16T12:40:45.170Z,2.53
2022-11-16T12:44:04.845Z,2.50
2022-11-16T12:47:41.854Z,2.23
2022-11-16T12:50:52.612Z,1.57
2022-11-16T12:54:09.622Z,2.93
2022-11-16T12:57:43.325Z,2.07
2022-11-16T13:01:17.749Z,2.50
2022-11-16T13:04:25.815Z,2.53
2022-11-16T13:07:46.259Z,2.20
2022-11-16T13:10:53.893Z,2.20
2022-11-16T13:14:03.693Z,2.07
2022-11-16T13:17:07.386Z,1.93
2022-11-16T13:20:39.450Z,2.30
2022-11-16T13:23:49.275Z,2.27
2022-11-16T13:27:04.522Z,2.00
2022-11-16T13:30:15.480Z,1.97
2022-11-16T13:33:26.371Z,2.10
2022-11-16T13:36:39.240Z,2.23
2022-11-16T13:40:00.758Z,2.20
2022-11-16T13:43:08.029Z,1.97
2022-11-16T13:46:22.367Z,2.60
2022-11-16T13:49:38.919Z,3.70
2022-11-16T13:53:36.524Z,3.03
2022-11-16T13:56:09.288Z,2.60
2022-11-16T13:59:16.169Z,2.00
2022-11-16T14:02:33.773Z,3.50
2022-11-16T14:05:41.577Z,2.90
2022-11-16T14:08:43.139Z,2.80
2022-11-16T14:11:44.729Z,2.87
2022-11-16T14:15:28.893Z,3.20
2022-11-16T14:18:34.273Z,2.40
2022-11-16T14:21:48.839Z,2.40
2022-11-16T14:25:00.091Z,2.47
2022-11-16T14:28:28.437Z,2.90
2022-11-16T14:31:48.394Z,2.33
2022-11-16T14:34:53.022Z,2.30
2022-11-16T14:38:10.380Z,2.20
2022-11-16T14:41:25.219Z,3.50
2022-11-16T14:44:32.253Z,5.70
2022-11-16T14:47:59.411Z,7.53
2022-11-16T14:51:12.559Z,4.87
2022-11-16T14:54:32.287Z,4.97
2022-11-16T14:57:39.791Z,4.60
2022-11-16T15:00:41.474Z,3.10
2022-11-16T15:03:57.466Z,3.40
2022-11-16T15:07:05.033Z,3.50
2022-11-16T15:10:18.885Z,3.97
2022-11-16T15:13:23.733Z,5.00
2022-11-16T15:16:25.515Z,3.60
2022-11-16T15:19:31.826Z,3.50
2022-11-16T15:22:41.048Z,3.30
2022-11-16T15:25:52.558Z,3.37
2022-11-16T15:28:55.474Z,4.23
2022-11-16T15:31:57.451Z,4.90
2022-11-16T15:35:05.001Z,4.90
2022-11-16T15:38:18.477Z,4.00
2022-11-16T15:41:22.173Z,4.40
2022-11-16T15:44:24.819Z,4.77
2022-11-16T15:47:30.090Z,4.90
2022-11-16T15:50:32.199Z,4.30
2022-11-16T15:53:42.748Z,4.57
2022-11-16T15:56:44.910Z,4.20
2022-11-16T15:59:49.730Z,4.37
2022-11-16T16:02:51.821Z,3.90
2022-11-16T16:05:54.800Z,3.80
2022-11-16T16:09:06.607Z,3.90
2022-11-16T16:12:32.332Z,4.93
2022-11-16T16:15:36.725Z,4.07
2022-11-16T16:18:43.899Z,3.60
2022-11-16T16:21:46.877Z,2.70
2022-11-16T16:24:51.501Z,3.23
2022-11-16T16:27:53.405Z,4.40
2022-11-16T16:30:55.195Z,6.00
2022-11-16T16:37:44.431Z,6.13
2022-11-16T16:40:46.315Z,6.20
2022-11-16T16:43:51.389Z,6.13
2022-11-16T16:47:06.771Z,6.63
2022-11-16T16:50:12.905Z,7.47
2022-11-16T16:53:15.577Z,7.20
2022-11-16T16:57:13.333Z,6.97
2022-11-16T17:08:42.420Z,7.97
2022-11-16T17:11:44.564Z,4.70
2022-11-16T17:14:57.548Z,5.20
2022-11-16T17:17:59.836Z,4.90
2022-11-16T17:21:48.463Z,6.40
2022-11-16T17:25:02.851Z,6.63
2022-11-16T17:28:14.040Z,7.07
2022-11-16T17:31:44.190Z,5.90
2022-11-16T17:34:48.647Z,5.93
2022-11-16T17:37:50.535Z,6.17
2022-11-16T17:41:05.528Z,6.20
2022-11-16T17:44:07.960Z,7.63
2022-11-16T17:50:49.279Z,5.73
2022-11-16T17:53:51.579Z,5.40
2022-11-16T17:56:53.620Z,5.20
2022-11-16T17:59:55.381Z,6.33
2022-11-16T18:02:57.133Z,5.93
2022-11-16T18:06:08.468Z,5.10
2022-11-16T18:09:10.328Z,4.87
2022-11-16T18:12:14.993Z,5.37
2022-11-16T18:15:28.537Z,6.00
2022-11-16T18:18:37.903Z,6.30
2022-11-16T18:21:40.770Z,5.60
2022-11-16T18:24:53.002Z,5.77
2022-11-16T18:27:55.785Z,4.80
2022-11-16T18:31:05.578Z,5.60
2022-11-16T18:34:07.517Z,5.93
2022-11-16T18:37:09.449Z,4.87
2022-11-16T18:40:12.166Z,5.77
2022-11-16T18:43:14.211Z,5.30
2022-11-16T18:46:17.286Z,6.80
2022-11-16T18:49:22.085Z,7.40
2022-11-16T18:52:31.672Z,7.07
2022-11-16T18:55:33.459Z,7.47
2022-11-16T18:58:49.885Z,7.97
2022-11-16T19:01:55.959Z,8.30
2022-11-16T19:04:58.229Z,7.90
2022-11-16T19:08:00.399Z,8.43
2022-11-16T19:11:11.550Z,6.93
2022-11-16T19:14:15.980Z,8.83
2022-11-16T19:17:20.302Z,7.47
2022-11-16T19:20:22.064Z,6.30
2022-11-16T19:23:23.974Z,6.00
2022-11-16T19:26:29.996Z,5.40
2022-11-16T19:29:31.667Z,4.53
2022-11-16T19:32:36.941Z,5.73
2022-11-16T19:35:47.836Z,6.90
2022-11-16T19:38:49.900Z,9.30
2022-11-16T19:41:51.711Z,8.77
2022-11-16T19:44:55.858Z,9.90
2022-11-16T19:47:58.913Z,8.73
2022-11-16T19:51:05.920Z,6.77
2022-11-16T19:54:09.222Z,6.57
2022-11-16T19:57:15.606Z,6.97
2022-11-16T20:00:17.721Z,6.20
2022-11-16T20:03:19.580Z,5.77
2022-11-16T20:06:24.124Z,5.07
2022-11-16T20:09:31.217Z,5.37
2022-11-16T20:12:32.881Z,4.63
2022-11-16T20:15:34.683Z,4.40
2022-11-16T20:18:37.548Z,5.23
2022-11-16T20:21:43.994Z,5.10
2022-11-16T20:24:45.965Z,5.70
2022-11-16T20:27:50.218Z,5.57
2022-11-16T20:30:59.522Z,5.70
2022-11-16T20:34:05.744Z,6.50
2022-11-16T20:37:10.639Z,5.07
2022-11-16T20:40:12.911Z,10.10
2022-11-16T20:43:14.859Z,11.20
2022-11-16T20:46:17.932Z,7.80
2022-11-16T20:49:19.925Z,6.47
2022-11-16T20:52:28.107Z,5.33
2022-11-16T20:55:31.945Z,4.00
2022-11-16T20:58:37.778Z,4.30
2022-11-16T21:01:41.465Z,5.10
2022-11-16T21:04:43.475Z,4.83
2022-11-16T21:07:45.619Z,6.80
2022-11-16T21:10:48.598Z,4.27
2022-11-16T21:14:08.891Z,5.50
2022-11-16T21:17:10.862Z,5.70
2022-11-16T21:20:26.343Z,5.90
2022-11-16T21:23:34.552Z,7.13
2022-11-16T21:26:37.259Z,7.73
2022-11-16T21:29:39.500Z,10.00
2022-11-16T21:32:41.262Z,10.20
2022-11-16T21:35:46.025Z,9.90
2022-11-16T21:38:53.819Z,9.97
2022-11-16T21:42:03.157Z,9.80
2022-11-16T21:45:08.483Z,21.80
2022-11-16T21:48:27.500Z,19.93
2022-11-16T21:51:30.765Z,10.57
2022-11-16T21:54:48.154Z,9.30
2022-11-16T21:57:50.168Z,9.70
2022-11-16T22:01:02.271Z,11.30
2022-11-16T22:08:08.645Z,10.90
2022-11-16T22:11:13.587Z,10.00
2022-11-16T22:14:21.187Z,8.27
2022-11-16T22:17:28.711Z,6.27
2022-11-16T22:20:31.491Z,6.67
2022-11-16T22:23:34.664Z,7.57
2022-11-16T22:26:38.123Z,5.20
2022-11-16T22:29:39.942Z,5.00
2022-11-16T22:32:41.990Z,4.80
2022-11-16T22:35:46.482Z,6.10
2022-11-16T22:38:51.054Z,6.40
2022-11-16T22:41:55.503Z,6.03
2022-11-16T22:44:57.547Z,4.47
2022-11-16T22:47:59.574Z,6.07
2022-11-16T22:51:22.468Z,4.10
2022-11-16T22:54:28.481Z,4.57
2022-11-16T22:57:30.606Z,4.70
2022-11-16T23:00:40.644Z,6.90
2022-11-16T23:03:46.483Z,3.87
2022-11-16T23:06:49.287Z,4.07
2022-11-16T23:09:51.241Z,3.73
2022-11-16T23:13:12.481Z,5.07
2022-11-16T23:16:14.474Z,3.60
2022-11-16T23:19:37.830Z,3.67
2022-11-16T23:22:58.498Z,2.93
2022-11-16T23:29:39.332Z,3.90
2022-11-16T23:32:41.727Z,3.77
2022-11-16T23:35:43.562Z,4.60
2022-11-16T23:38:45.323Z,4.80
2022-11-16T23:42:05.775Z,3.60
2022-11-16T23:45:08.238Z,3.70
2022-11-16T23:48:11.677Z,6.30
2022-11-16T23:51:13.648Z,5.70
2022-11-16T23:54:15.610Z,4.97
2022-11-16T23:57:20.677Z,4.40
